Time;durP1;ratioP1;P1;durP2;ratioP2;P2;SDS_P1;SDS_P2;PMS_P1;PMS_P2;Temp;Humidity;BMP_temperature;BMP_pressure;BME280_temperature;BME280_humidity;BME280_pressure;Samples;Min_cycle;Max_cycle;Signal;HPM_P1;HPM_P2
2022/11/15 00:00:15;;;;;;;8.20;4.50;;;;;;;;;;4899602;29;20050;-62
2022/11/15 00:03:00;;;;;;;6.75;5.15;;;;;;;;;;4899253;29;20055;-62
2022/11/15 00:05:45;;;;;;;7.05;4.80;;;;;;;;;;4899474;29;20061;-61
2022/11/15 00:08:30;;;;;;;5.95;5.05;;;;;;;;;;4899892;29;20116;-62
2022/11/15 00:11:15;;;;;;;6.40;5.15;;;;;;;;;;4898698;29;20108;-61
2022/11/15 00:14:02;;;;;;;6.03;4.90;;;;;;;;;;4898868;29;20059;-62
2022/11/15 00:16:47;;;;;;;8.73;5.25;;;;;;;;;;4899492;29;20059;-61
2022/11/15 00:19:33;;;;;;;6.05;4.43;;;;;;;;;;4899598;29;20052;-62
2022/11/15 00:22:18;;;;;;;5.90;4.90;;;;;;;;;;4898885;29;20051;-62
2022/11/15 00:25:03;;;;;;;7.05;4.53;;;;;;;;;;4899237;29;20059;-61
2022/11/15 00:27:48;;;;;;;5.10;4.30;;;;;;;;;;4899399;29;20055;-61
2022/11/15 00:30:34;;;;;;;7.30;4.30;;;;;;;;;;4899411;29;20060;-61
2022/11/15 00:33:19;;;;;;;4.90;4.20;;;;;;;;;;4898836;29;20120;-61
2022/11/15 00:36:09;;;;;;;8.32;3.90;;;;;;;;;;4899228;29;20192;-62
2022/11/15 00:38:53;;;;;;;5.55;4.40;;;;;;;;;;4899258;29;20421;-61
2022/11/15 00:41:39;;;;;;;4.95;4.07;;;;;;;;;;4898158;29;20157;-61
2022/11/15 00:44:23;;;;;;;5.85;4.50;;;;;;;;;;4899188;29;20059;-62
2022/11/15 00:47:08;;;;;;;6.68;4.20;;;;;;;;;;4899073;29;20072;-61
2022/11/15 00:49:53;;;;;;;6.93;4.32;;;;;;;;;;4897813;29;20140;-62
2022/11/15 00:52:38;;;;;;;5.07;4.00;;;;;;;;;;4897215;29;20051;-61
2022/11/15 00:55:22;;;;;;;6.45;4.13;;;;;;;;;;4898898;29;20051;-61
2022/11/15 00:58:08;;;;;;;8.85;4.22;;;;;;;;;;4898684;29;20529;-62
2022/11/15 01:00:53;;;;;;;5.97;4.00;;;;;;;;;;4898481;29;20525;-62
2022/11/15 01:03:39;;;;;;;6.47;3.50;;;;;;;;;;4896927;29;20429;-62
2022/11/15 01:06:23;;;;;;;6.00;3.65;;;;;;;;;;4898588;29;20062;-62
2022/11/15 01:09:08;;;;;;;5.35;3.88;;;;;;;;;;4910840;29;20480;-61
2022/11/15 01:11:53;;;;;;;9.05;4.40;;;;;;;;;;4897922;29;20176;-62
2022/11/15 01:14:38;;;;;;;5.22;3.85;;;;;;;;;;4898343;29;20059;-61
2022/11/15 01:17:23;;;;;;;6.32;3.80;;;;;;;;;;4898515;29;20059;-63
2022/11/15 01:20:08;;;;;;;5.05;3.53;;;;;;;;;;4898247;29;20059;-62
2022/11/15 01:22:53;;;;;;;5.22;3.88;;;;;;;;;;4897726;29;20084;-62
2022/11/15 01:25:37;;;;;;;3.78;3.33;;;;;;;;;;4897379;29;20533;-61
2022/11/15 01:28:22;;;;;;;5.40;3.92;;;;;;;;;;4898415;29;20055;-62
2022/11/15 01:31:11;;;;;;;5.95;3.92;;;;;;;;;;4897990;29;20144;-62
2022/11/15 01:33:56;;;;;;;5.07;3.30;;;;;;;;;;4897532;29;20417;-63
2022/11/15 01:36:41;;;;;;;4.85;3.28;;;;;;;;;;4897171;29;20558;-62
2022/11/15 01:39:26;;;;;;;4.47;3.25;;;;;;;;;;4897953;29;20064;-62
2022/11/15 01:42:14;;;;;;;4.43;3.47;;;;;;;;;;4896996;29;20051;-61
2022/11/15 01:44:59;;;;;;;4.15;3.20;;;;;;;;;;4897891;29;20059;-64
2022/11/15 01:47:52;;;;;;;3.70;2.90;;;;;;;;;;4897909;29;20076;-62
2022/11/15 01:50:37;;;;;;;3.72;3.20;;;;;;;;;;4896391;29;20135;-62
2022/11/15 01:53:24;;;;;;;4.82;3.55;;;;;;;;;;4897290;29;20052;-62
2022/11/15 01:56:11;;;;;;;4.93;3.30;;;;;;;;;;4897680;29;20139;-62
2022/11/15 01:58:58;;;;;;;4.00;3.15;;;;;;;;;;4897451;29;20064;-62
2022/11/15 02:01:43;;;;;;;5.32;3.50;;;;;;;;;;4896975;29;20051;-61
2022/11/15 02:04:29;;;;;;;3.33;3.03;;;;;;;;;;4897200;29;20072;-62
2022/11/15 02:07:18;;;;;;;4.25;3.28;;;;;;;;;;4897504;29;20168;-62
2022/11/15 02:10:08;;;;;;;4.75;3.13;;;;;;;;;;4897400;29;20059;-62
2022/11/15 02:12:53;;;;;;;4.03;3.10;;;;;;;;;;4896883;29;20064;-62
2022/11/15 02:15:41;;;;;;;4.22;3.20;;;;;;;;;;4897408;29;20055;-61
2022/11/15 02:18:33;;;;;;;5.05;3.45;;;;;;;;;;4897522;29;20104;-62
2022/11/15 02:21:26;;;;;;;3.70;3.08;;;;;;;;;;4897092;29;20170;-61
2022/11/15 02:24:11;;;;;;;4.32;2.90;;;;;;;;;;4897329;29;20128;-62
2022/11/15 02:27:11;;;;;;;3.42;3.13;;;;;;;;;;4897198;29;20056;-61
2022/11/15 02:30:14;;;;;;;5.95;4.03;;;;;;;;;;4897160;29;20051;-61
2022/11/15 02:33:18;;;;;;;4.80;3.28;;;;;;;;;;4897104;29;20116;-62
2022/11/15 02:36:11;;;;;;;5.28;3.55;;;;;;;;;;4897115;29;20128;-62
2022/11/15 02:39:03;;;;;;;4.05;3.50;;;;;;;;;;4897230;29;20071;-62
2022/11/15 02:41:55;;;;;;;4.93;3.45;;;;;;;;;;4896351;29;20577;-62
2022/11/15 02:44:43;;;;;;;4.43;3.63;;;;;;;;;;4897123;29;20409;-61
2022/11/15 02:47:29;;;;;;;5.57;3.92;;;;;;;;;;4896866;29;20642;-61
2022/11/15 02:50:16;;;;;;;4.15;3.38;;;;;;;;;;4896827;29;20169;-61
2022/11/15 02:53:02;;;;;;;4.68;3.33;;;;;;;;;;4908426;29;20055;-60
2022/11/15 02:55:49;;;;;;;5.35;3.60;;;;;;;;;;4897427;29;20104;-61
2022/11/15 02:58:34;;;;;;;5.13;3.13;;;;;;;;;;4897080;29;20521;-62
2022/11/15 03:01:37;;;;;;;4.47;3.65;;;;;;;;;;4896744;29;20139;-62
2022/11/15 03:04:25;;;;;;;7.00;4.13;;;;;;;;;;4897103;29;20064;-61
2022/11/15 03:07:13;;;;;;;4.95;3.97;;;;;;;;;;4897257;29;20060;-64
2022/11/15 03:10:17;;;;;;;6.10;3.88;;;;;;;;;;4896450;29;20060;-62
2022/11/15 03:13:05;;;;;;;3.90;3.50;;;;;;;;;;4896505;29;20059;-62
2022/11/15 03:15:58;;;;;;;4.80;3.42;;;;;;;;;;4899298;29;20056;-62
2022/11/15 03:18:45;;;;;;;4.47;3.20;;;;;;;;;;4901352;29;20056;-62
2022/11/15 03:21:30;;;;;;;6.60;4.03;;;;;;;;;;4913068;29;20096;-61
2022/11/15 03:24:16;;;;;;;7.90;4.65;;;;;;;;;;4900659;29;20143;-61
2022/11/15 03:27:10;;;;;;;3.88;3.45;;;;;;;;;;4900824;29;20051;-62
2022/11/15 03:29:57;;;;;;;3.97;3.58;;;;;;;;;;4900207;29;20425;-62
2022/11/15 03:33:02;;;;;;;4.72;3.47;;;;;;;;;;4899983;29;20116;-62
2022/11/15 03:35:48;;;;;;;5.28;3.75;;;;;;;;;;4900403;29;20064;-61
2022/11/15 03:38:34;;;;;;;5.70;3.60;;;;;;;;;;4899993;29;20059;-62
2022/11/15 03:41:23;;;;;;;4.60;3.50;;;;;;;;;;4899931;29;20204;-62
2022/11/15 03:44:16;;;;;;;3.88;3.47;;;;;;;;;;4900013;29;20055;-61
2022/11/15 03:47:04;;;;;;;5.43;3.25;;;;;;;;;;4899942;29;20064;-62
2022/11/15 03:50:04;;;;;;;5.38;3.08;;;;;;;;;;4899970;29;20089;-61
2022/11/15 03:52:49;;;;;;;4.00;3.55;;;;;;;;;;4899300;29;20446;-62
2022/11/15 03:55:34;;;;;;;4.25;3.83;;;;;;;;;;4899904;29;20527;-62
2022/11/15 03:58:19;;;;;;;5.57;3.38;;;;;;;;;;4899882;29;20064;-62
2022/11/15 04:01:04;;;;;;;4.95;3.72;;;;;;;;;;4899799;29;20135;-62
2022/11/15 04:03:49;;;;;;;4.28;3.17;;;;;;;;;;4899046;29;20060;-62
2022/11/15 04:06:34;;;;;;;4.40;3.58;;;;;;;;;;4899641;29;20108;-62
2022/11/15 04:09:19;;;;;;;5.43;3.72;;;;;;;;;;4899602;29;20060;-61
2022/11/15 04:12:04;;;;;;;5.55;3.53;;;;;;;;;;4898773;29;20148;-63
2022/11/15 04:15:06;;;;;;;4.88;3.30;;;;;;;;;;4911547;29;20056;-60
2022/11/15 04:17:52;;;;;;;4.38;3.92;;;;;;;;;;4899260;29;20116;-60
2022/11/15 04:26:45;;;;;;;3.25;2.60;;;;;;;;;;4898784;29;20059;-61
2022/11/15 04:29:36;;;;;;;5.10;3.08;;;;;;;;;;4899250;29;20123;-61
2022/11/15 04:32:21;;;;;;;4.10;3.70;;;;;;;;;;4898598;29;20051;-62
2022/11/15 04:35:06;;;;;;;4.32;3.05;;;;;;;;;;4899087;29;20095;-61
2022/11/15 04:37:51;;;;;;;4.13;3.25;;;;;;;;;;4911451;29;20309;-61
2022/11/15 04:40:36;;;;;;;4.32;3.28;;;;;;;;;;4898786;29;20060;-61
2022/11/15 04:43:21;;;;;;;3.85;2.80;;;;;;;;;;4898312;29;20096;-60
2022/11/15 04:46:06;;;;;;;5.47;3.72;;;;;;;;;;4899030;29;20601;-61
2022/11/15 04:48:51;;;;;;;5.28;3.38;;;;;;;;;;4899011;29;20096;-61
2022/11/15 04:51:42;;;;;;;6.68;3.45;;;;;;;;;;4898124;29;20063;-61
2022/11/15 04:54:26;;;;;;;5.20;3.50;;;;;;;;;;4898414;29;20116;-62
2022/11/15 04:57:11;;;;;;;3.40;3.10;;;;;;;;;;4898800;29;20529;-61
2022/11/15 04:59:56;;;;;;;5.03;3.10;;;;;;;;;;4898834;29;20070;-61
2022/11/15 05:05:51;;;;;;;3.63;3.03;;;;;;;;;;4936239;29;20146;-62
2022/11/15 05:08:36;;;;;;;3.67;2.88;;;;;;;;;;4949159;29;20612;-62
2022/11/15 05:11:21;;;;;;;3.42;3.10;;;;;;;;;;4934610;29;20062;-63
2022/11/15 05:14:06;;;;;;;6.47;4.88;;;;;;;;;;4917418;29;20055;-62
2022/11/15 05:16:51;;;;;;;6.20;3.63;;;;;;;;;;4917461;29;20461;-62
2022/11/15 05:19:36;;;;;;;3.78;3.38;;;;;;;;;;4917286;29;20107;-62
2022/11/15 05:22:22;;;;;;;7.80;4.32;;;;;;;;;;4916176;29;20143;-62
2022/11/15 05:25:07;;;;;;;4.60;3.40;;;;;;;;;;4916831;29;20048;-62
2022/11/15 05:27:52;;;;;;;3.85;3.45;;;;;;;;;;4917015;29;20135;-62
2022/11/15 05:30:37;;;;;;;6.13;3.50;;;;;;;;;;4916770;29;20457;-62
2022/11/15 05:33:23;;;;;;;3.97;3.33;;;;;;;;;;4916447;29;20071;-62
2022/11/15 05:36:27;;;;;;;4.38;3.60;;;;;;;;;;4916706;29;20139;-62
2022/11/15 05:39:12;;;;;;;4.47;3.47;;;;;;;;;;4928620;29;20071;-62
2022/11/15 05:42:01;;;;;;;4.45;4.03;;;;;;;;;;4916092;29;20635;-61
2022/11/15 05:44:47;;;;;;;5.25;3.63;;;;;;;;;;4916931;29;20505;-62
2022/11/15 05:47:35;;;;;;;3.78;3.40;;;;;;;;;;4916544;29;20531;-61
2022/11/15 05:50:20;;;;;;;4.28;3.88;;;;;;;;;;4929273;29;20063;-60
2022/11/15 05:53:05;;;;;;;6.00;4.75;;;;;;;;;;4929092;29;20059;-62
2022/11/15 05:55:50;;;;;;;3.83;3.53;;;;;;;;;;4917523;29;20083;-61
2022/11/15 05:58:36;;;;;;;7.70;4.15;;;;;;;;;;4917064;29;20115;-62
2022/11/15 06:01:21;;;;;;;9.48;6.70;;;;;;;;;;4916577;29;20055;-62
2022/11/15 06:04:06;;;;;;;7.05;4.90;;;;;;;;;;4916152;29;20137;-62
2022/11/15 06:06:51;;;;;;;6.30;4.57;;;;;;;;;;4916495;29;20066;-63
2022/11/15 06:09:36;;;;;;;9.18;5.93;;;;;;;;;;4916226;29;20433;-62
2022/11/15 06:12:21;;;;;;;7.53;5.28;;;;;;;;;;4915607;29;20153;-62
2022/11/15 06:15:06;;;;;;;6.82;4.95;;;;;;;;;;4916024;29;20131;-63
2022/11/15 06:17:51;;;;;;;7.93;6.15;;;;;;;;;;4916330;29;20063;-63
2022/11/15 06:20:36;;;;;;;7.15;4.85;;;;;;;;;;4915988;29;20136;-61
2022/11/15 06:23:21;;;;;;;5.68;4.60;;;;;;;;;;4915388;29;20064;-62
2022/11/15 06:26:07;;;;;;;6.30;4.40;;;;;;;;;;4916430;29;20055;-63
2022/11/15 06:28:51;;;;;;;6.32;5.50;;;;;;;;;;4915739;29;20055;-61
2022/11/15 06:31:36;;;;;;;4.85;4.38;;;;;;;;;;4915519;29;20119;-62
2022/11/15 06:34:21;;;;;;;6.88;5.28;;;;;;;;;;4916098;29;20124;-63
2022/11/15 06:37:06;;;;;;;8.65;5.93;;;;;;;;;;4915968;29;20167;-61
2022/11/15 06:39:51;;;;;;;6.72;5.68;;;;;;;;;;4916069;29;20055;-62
2022/11/15 06:42:36;;;;;;;7.65;6.25;;;;;;;;;;4914100;29;20051;-62
2022/11/15 06:45:20;;;;;;;6.90;6.18;;;;;;;;;;4916018;29;20051;-62
2022/11/15 06:48:05;;;;;;;7.70;6.40;;;;;;;;;;4916061;29;20076;-63
2022/11/15 06:50:54;;;;;;;7.15;5.15;;;;;;;;;;4919650;29;20062;-63
2022/11/15 06:53:39;;;;;;;8.75;6.22;;;;;;;;;;4918928;29;20066;-62
2022/11/15 06:56:24;;;;;;;7.38;5.80;;;;;;;;;;4932345;29;20527;-62
2022/11/15 06:59:09;;;;;;;10.30;7.53;;;;;;;;;;4919503;29;20459;-61
2022/11/15 07:01:54;;;;;;;10.93;7.30;;;;;;;;;;4931306;29;20079;-62
2022/11/15 07:04:38;;;;;;;9.05;6.38;;;;;;;;;;4919478;29;20099;-61
2022/11/15 07:07:23;;;;;;;8.50;5.88;;;;;;;;;;4918738;29;20111;-62
2022/11/15 07:10:08;;;;;;;10.63;6.22;;;;;;;;;;4919603;29;20417;-60
2022/11/15 07:12:54;;;;;;;8.13;6.32;;;;;;;;;;4917777;29;20070;-61
2022/11/15 07:15:39;;;;;;;8.65;6.10;;;;;;;;;;4919392;29;20118;-62
2022/11/15 07:18:24;;;;;;;9.18;6.30;;;;;;;;;;4919198;29;20059;-61
2022/11/15 07:21:10;;;;;;;7.88;5.93;;;;;;;;;;4919146;29;20063;-62
2022/11/15 07:23:55;;;;;;;8.63;5.70;;;;;;;;;;4918695;29;20055;-62
2022/11/15 07:26:39;;;;;;;8.80;6.00;;;;;;;;;;4918932;29;20431;-62
2022/11/15 07:29:24;;;;;;;9.75;6.35;;;;;;;;;;4919136;29;20526;-61
2022/11/15 07:32:09;;;;;;;11.23;8.02;;;;;;;;;;4918478;29;20199;-62
2022/11/15 07:34:54;;;;;;;8.25;6.43;;;;;;;;;;4918052;29;20137;-62
2022/11/15 07:37:39;;;;;;;9.57;6.47;;;;;;;;;;4918870;29;20417;-62
2022/11/15 07:40:24;;;;;;;9.65;6.28;;;;;;;;;;4918085;29;20062;-62
2022/11/15 07:43:09;;;;;;;8.90;6.43;;;;;;;;;;4918079;29;20080;-62
2022/11/15 07:45:57;;;;;;;8.15;5.30;;;;;;;;;;4918911;29;20059;-62
2022/11/15 07:48:43;;;;;;;6.70;4.60;;;;;;;;;;4930624;29;20135;-62
2022/11/15 07:51:29;;;;;;;7.13;5.45;;;;;;;;;;4918987;29;20059;-63
2022/11/15 07:54:14;;;;;;;5.70;4.45;;;;;;;;;;4919048;29;20063;-62
2022/11/15 07:56:59;;;;;;;7.97;4.90;;;;;;;;;;4918884;29;20135;-61
2022/11/15 07:59:51;;;;;;;7.30;5.15;;;;;;;;;;4918775;29;20528;-61
2022/11/15 08:02:36;;;;;;;7.47;4.85;;;;;;;;;;4917148;29;20047;-61
2022/11/15 08:05:21;;;;;;;8.02;5.20;;;;;;;;;;4918812;29;20071;-62
2022/11/15 08:08:07;;;;;;;5.15;4.65;;;;;;;;;;4918840;29;20055;-61
2022/11/15 08:10:52;;;;;;;7.80;4.30;;;;;;;;;;4918762;29;20413;-61
2022/11/15 08:13:37;;;;;;;8.20;5.68;;;;;;;;;;4917953;29;20051;-62
2022/11/15 08:16:22;;;;;;;5.72;4.70;;;;;;;;;;4918943;29;20058;-62
2022/11/15 08:19:07;;;;;;;7.05;4.57;;;;;;;;;;4931689;29;20138;-62
2022/11/15 08:21:51;;;;;;;9.98;4.80;;;;;;;;;;4918186;29;20058;-63
2022/11/15 08:24:36;;;;;;;6.00;4.82;;;;;;;;;;4919031;29;20553;-62
2022/11/15 08:27:22;;;;;;;9.50;5.35;;;;;;;;;;4918876;29;20059;-61
2022/11/15 08:30:07;;;;;;;5.28;4.50;;;;;;;;;;4918639;29;20095;-61
2022/11/15 08:32:53;;;;;;;6.25;5.10;;;;;;;;;;4917508;29;20059;-62
2022/11/15 08:35:38;;;;;;;10.00;5.18;;;;;;;;;;4918568;29;20478;-62
2022/11/15 08:38:23;;;;;;;8.95;4.90;;;;;;;;;;4918622;29;20082;-62
2022/11/15 08:41:35;;;;;;;7.18;4.45;;;;;;;;;;4917958;29;20132;-62
2022/11/15 08:44:20;;;;;;;10.52;4.78;;;;;;;;;;4917903;29;20063;-63
2022/11/15 08:47:05;;;;;;;7.22;4.80;;;;;;;;;;4918058;29;20132;-62
2022/11/15 08:49:50;;;;;;;6.53;5.30;;;;;;;;;;4916666;29;20413;-62
2022/11/15 08:52:35;;;;;;;6.45;4.57;;;;;;;;;;4916954;29;20522;-62
2022/11/15 08:55:20;;;;;;;6.13;4.45;;;;;;;;;;4918084;29;20059;-61
2022/11/15 08:58:08;;;;;;;7.43;4.90;;;;;;;;;;4917602;29;20072;-61
2022/11/15 09:00:53;;;;;;;5.70;4.50;;;;;;;;;;4917244;29;20055;-61
2022/11/15 09:03:39;;;;;;;7.13;5.00;;;;;;;;;;4916915;29;20050;-61
2022/11/15 09:06:24;;;;;;;5.40;4.55;;;;;;;;;;4917533;29;20194;-62
2022/11/15 09:09:09;;;;;;;8.75;4.88;;;;;;;;;;4917378;29;20075;-61
2022/11/15 09:11:53;;;;;;;5.63;4.40;;;;;;;;;;4916324;29;20123;-61
2022/11/15 09:14:46;;;;;;;5.43;4.00;;;;;;;;;;4928903;29;20539;-61
2022/11/15 09:17:31;;;;;;;8.52;4.38;;;;;;;;;;4917285;29;20063;-61
2022/11/15 09:20:15;;;;;;;8.73;4.85;;;;;;;;;;4917204;29;20054;-61
2022/11/15 09:23:01;;;;;;;9.80;5.03;;;;;;;;;;4928697;29;20158;-61
2022/11/15 09:25:46;;;;;;;7.30;4.50;;;;;;;;;;4917201;29;20138;-62
2022/11/15 09:28:31;;;;;;;7.43;4.35;;;;;;;;;;4917057;29;20122;-62
2022/11/15 09:31:16;;;;;;;9.40;6.15;;;;;;;;;;4917030;29;20096;-62
2022/11/15 09:34:05;;;;;;;7.30;4.63;;;;;;;;;;4915892;29;20063;-63
2022/11/15 09:36:50;;;;;;;6.18;4.65;;;;;;;;;;4917229;29;20107;-62
2022/11/15 09:39:35;;;;;;;8.75;5.25;;;;;;;;;;4916766;29;20184;-63
2022/11/15 09:42:26;;;;;;;5.82;4.15;;;;;;;;;;4915913;29;20412;-63
2022/11/15 09:45:20;;;;;;;8.88;4.95;;;;;;;;;;4916824;29;20135;-62
2022/11/15 09:48:05;;;;;;;6.97;4.53;;;;;;;;;;4916746;29;20096;-62
2022/11/15 09:51:13;;;;;;;11.80;6.10;;;;;;;;;;4876509;29;20045;-63
2022/11/15 09:53:48;;;;;;;7.70;4.68;;;;;;;;;;4875794;29;20049;-62
2022/11/15 09:56:36;;;;;;;6.10;4.22;;;;;;;;;;4903731;29;20091;-62
2022/11/15 09:59:11;;;;;;;9.98;6.40;;;;;;;;;;4916297;29;20103;-63
2022/11/15 10:01:41;;;;;;;8.90;4.65;;;;;;;;;;4930292;29;20052;-63
2022/11/15 10:04:07;;;;;;;6.32;3.85;;;;;;;;;;4916411;29;20080;-63
2022/11/15 10:06:41;;;;;;;6.75;3.08;;;;;;;;;;4916475;29;20035;-63
2022/11/15 10:09:16;;;;;;;5.30;3.13;;;;;;;;;;4916399;29;20087;-62
2022/11/15 10:11:49;;;;;;;6.55;2.92;;;;;;;;;;4915355;29;20051;-63
2022/11/15 10:14:18;;;;;;;6.50;3.63;;;;;;;;;;4916404;29;20099;-62
2022/11/15 10:17:03;;;;;;;6.30;2.95;;;;;;;;;;4930759;29;20048;-62
2022/11/15 10:19:48;;;;;;;4.05;2.70;;;;;;;;;;4916325;29;20051;-63
2022/11/15 10:22:15;;;;;;;3.53;2.83;;;;;;;;;;4915366;29;20055;-63
2022/11/15 10:24:42;;;;;;;3.13;2.08;;;;;;;;;;4915701;29;20493;-63
2022/11/15 10:27:13;;;;;;;4.70;2.80;;;;;;;;;;4915853;29;20044;-63
2022/11/15 10:29:57;;;;;;;3.95;2.20;;;;;;;;;;4930560;29;20048;-63
2022/11/15 10:32:25;;;;;;;3.38;2.15;;;;;;;;;;4929887;29;20054;-61
2022/11/15 10:34:51;;;;;;;3.75;2.17;;;;;;;;;;4914490;29;20497;-62
2022/11/15 10:37:27;;;;;;;3.03;1.92;;;;;;;;;;4914650;29;20051;-61
2022/11/15 10:40:14;;;;;;;4.38;1.65;;;;;;;;;;4916145;29;20052;-62
2022/11/15 10:42:41;;;;;;;2.05;1.70;;;;;;;;;;4929795;29;20457;-63
2022/11/15 10:45:23;;;;;;;2.15;1.48;;;;;;;;;;4915651;29;20047;-62
2022/11/15 10:47:49;;;;;;;2.85;1.80;;;;;;;;;;4930601;29;20040;-62
2022/11/15 10:50:30;;;;;;;6.30;2.15;;;;;;;;;;4915787;29;20044;-61
2022/11/15 10:52:57;;;;;;;1.92;1.45;;;;;;;;;;4915215;29;20409;-62
2022/11/15 10:55:27;;;;;;;2.72;1.60;;;;;;;;;;4915770;29;20050;-62
2022/11/15 10:58:03;;;;;;;1.52;0.90;;;;;;;;;;4915851;29;20048;-62
2022/11/15 11:00:32;;;;;;;1.30;1.10;;;;;;;;;;4915770;29;20063;-63
2022/11/15 11:03:00;;;;;;;3.33;1.75;;;;;;;;;;4914821;29;20059;-62
2022/11/15 11:05:26;;;;;;;1.42;1.33;;;;;;;;;;4915626;29;20072;-62
2022/11/15 11:08:05;;;;;;;1.80;1.50;;;;;;;;;;4915626;29;20095;-62
2022/11/15 11:10:33;;;;;;;3.30;1.80;;;;;;;;;;4914344;29;20111;-62
2022/11/15 11:13:22;;;;;;;8.05;3.72;;;;;;;;;;4915018;29;20100;-62
2022/11/15 11:15:59;;;;;;;2.25;1.80;;;;;;;;;;4915921;29;20052;-62
2022/11/15 11:18:42;;;;;;;4.57;2.00;;;;;;;;;;4915621;29;20044;-62
2022/11/15 11:21:18;;;;;;;4.22;1.70;;;;;;;;;;4915745;29;20045;-62
2022/11/15 11:24:25;;;;;;;2.03;1.75;;;;;;;;;;4914659;29;20051;-62
2022/11/15 11:29:49;;;;;;;2.25;1.48;;;;;;;;;;4911394;23;20041;-65
2022/11/15 11:32:30;;;;;;;1.58;1.48;;;;;;;;;;4898174;29;20123;-66
2022/11/15 11:35:00;;;;;;;1.25;1.10;;;;;;;;;;4894831;29;20561;-66
2022/11/15 11:37:44;;;;;;;2.15;1.50;;;;;;;;;;4895490;29;20057;-66
2022/11/15 11:40:30;;;;;;;1.63;1.50;;;;;;;;;;4898197;29;20049;-66
2022/11/15 11:43:05;;;;;;;1.48;1.15;;;;;;;;;;4897905;29;20052;-66
2022/11/15 11:45:51;;;;;;;1.30;1.20;;;;;;;;;;4912598;29;20075;-65
2022/11/15 11:48:27;;;;;;;1.20;1.10;;;;;;;;;;4897418;29;20052;-66
2022/11/15 11:50:56;;;;;;;2.60;1.08;;;;;;;;;;4899742;29;20132;-66
2022/11/15 11:53:31;;;;;;;2.08;1.45;;;;;;;;;;4900211;29;20123;-66
2022/11/15 11:55:58;;;;;;;1.35;1.08;;;;;;;;;;4914991;29;20520;-66
2022/11/15 11:58:36;;;;;;;1.02;1.00;;;;;;;;;;4913400;29;20084;-67
2022/11/15 12:01:18;;;;;;;0.93;0.90;;;;;;;;;;4900529;29;20068;-66
2022/11/15 12:03:50;;;;;;;1.38;1.17;;;;;;;;;;4899815;29;20045;-67
2022/11/15 12:06:22;;;;;;;1.70;1.20;;;;;;;;;;4914237;29;20076;-66
2022/11/15 12:08:52;;;;;;;1.25;1.05;;;;;;;;;;4899122;29;20072;-67
2022/11/15 12:11:21;;;;;;;1.58;0.90;;;;;;;;;;4914270;29;20044;-67
2022/11/15 12:13:50;;;;;;;1.40;1.10;;;;;;;;;;4914372;29;20056;-66
2022/11/15 12:16:16;;;;;;;1.00;0.95;;;;;;;;;;4899442;29;20081;-66
2022/11/15 12:18:49;;;;;;;2.08;1.00;;;;;;;;;;4898629;29;20076;-67
2022/11/15 12:21:16;;;;;;;1.30;1.15;;;;;;;;;;4913929;29;20053;-66
2022/11/15 12:24:04;;;;;;;1.33;1.00;;;;;;;;;;4899293;29;20140;-66
2022/11/15 12:26:50;;;;;;;3.28;1.02;;;;;;;;;;4899343;29;20043;-67
2022/11/15 12:29:25;;;;;;;1.33;1.10;;;;;;;;;;4898643;29;20115;-67
2022/11/15 12:31:55;;;;;;;1.55;1.30;;;;;;;;;;4899475;29;20077;-67
2022/11/15 12:34:21;;;;;;;1.80;1.27;;;;;;;;;;4899963;29;20052;-67
2022/11/15 12:36:49;;;;;;;1.13;1.00;;;;;;;;;;4897989;29;20097;-67
2022/11/15 12:39:16;;;;;;;1.33;1.17;;;;;;;;;;4913564;29;20100;-67
2022/11/15 12:41:44;;;;;;;2.15;1.30;;;;;;;;;;4899621;29;20071;-66
2022/11/15 12:44:30;;;;;;;1.13;1.00;;;;;;;;;;4899464;29;20501;-67
2022/11/15 12:46:57;;;;;;;1.00;0.90;;;;;;;;;;4888984;29;20057;-66
2022/11/15 12:49:23;;;;;;;1.20;1.10;;;;;;;;;;4897216;29;20052;-66
2022/11/15 12:51:50;;;;;;;1.88;1.60;;;;;;;;;;4899197;29;20100;-67
2022/11/15 12:54:23;;;;;;;0.90;0.80;;;;;;;;;;4913156;29;20060;-67
2022/11/15 12:57:08;;;;;;;1.83;1.50;;;;;;;;;;4898578;29;20081;-66
2022/11/15 12:59:54;;;;;;;1.77;1.20;;;;;;;;;;4896644;29;20109;-67
2022/11/15 13:02:32;;;;;;;1.67;1.40;;;;;;;;;;4912934;29;20048;-67
2022/11/15 13:05:28;;;;;;;1.63;0.98;;;;;;;;;;4898580;29;20112;-66
2022/11/15 13:07:56;;;;;;;2.70;1.05;;;;;;;;;;4911855;29;20080;-67
2022/11/15 13:10:25;;;;;;;1.10;1.00;;;;;;;;;;4897126;29;20119;-66
2022/11/15 13:12:55;;;;;;;1.90;1.27;;;;;;;;;;4898969;29;20419;-66
2022/11/15 13:15:24;;;;;;;0.90;0.90;;;;;;;;;;4898186;29;20100;-66
2022/11/15 13:17:51;;;;;;;0.85;0.82;;;;;;;;;;4912130;29;20068;-67
2022/11/15 13:20:17;;;;;;;1.33;1.20;;;;;;;;;;4898357;29;20036;-66
2022/11/15 13:23:00;;;;;;;1.27;1.17;;;;;;;;;;4898395;29;20119;-65
2022/11/15 13:25:36;;;;;;;1.52;1.27;;;;;;;;;;4896996;29;20045;-67
2022/11/15 13:28:10;;;;;;;1.75;0.93;;;;;;;;;;4897548;29;20045;-66
2022/11/15 13:30:37;;;;;;;1.27;0.93;;;;;;;;;;4912357;29;20111;-65
2022/11/15 13:33:14;;;;;;;0.85;0.85;;;;;;;;;;4912659;29;20044;-66
2022/11/15 13:35:41;;;;;;;1.52;1.20;;;;;;;;;;4912538;29;20048;-66
2022/11/15 13:38:18;;;;;;;2.22;1.58;;;;;;;;;;4911681;29;20094;-66
2022/11/15 13:40:44;;;;;;;1.98;1.67;;;;;;;;;;4912597;29;20655;-66
2022/11/15 13:43:37;;;;;;;1.42;1.20;;;;;;;;;;4897748;29;20048;-67
2022/11/15 13:46:15;;;;;;;2.30;1.20;;;;;;;;;;4895130;29;20109;-66
2022/11/15 13:48:42;;;;;;;1.15;1.05;;;;;;;;;;4911710;29;20048;-66
2022/11/15 13:51:27;;;;;;;2.78;1.45;;;;;;;;;;4897770;29;20044;-66
2022/11/15 13:53:55;;;;;;;2.33;1.10;;;;;;;;;;4896450;29;20053;-66
2022/11/15 13:56:22;;;;;;;0.95;0.90;;;;;;;;;;4897313;29;20044;-66
2022/11/15 13:58:48;;;;;;;1.48;1.38;;;;;;;;;;4896304;29;20060;-66
2022/11/15 14:01:20;;;;;;;1.98;1.45;;;;;;;;;;4896222;29;20084;-65
2022/11/15 14:03:48;;;;;;;3.53;1.60;;;;;;;;;;4897482;29;20494;-66
2022/11/15 14:06:16;;;;;;;1.75;1.08;;;;;;;;;;4911809;29;20391;-67
2022/11/15 14:08:58;;;;;;;3.30;1.95;;;;;;;;;;4911211;29;20052;-66
2022/11/15 14:11:24;;;;;;;2.63;1.30;;;;;;;;;;4897341;29;20119;-65
2022/11/15 14:14:09;;;;;;;2.65;1.38;;;;;;;;;;4897297;29;20075;-65
2022/11/15 14:16:38;;;;;;;1.35;1.00;;;;;;;;;;4911940;29;20458;-65
2022/11/15 14:19:05;;;;;;;1.80;1.40;;;;;;;;;;4911439;29;20056;-67
2022/11/15 14:21:32;;;;;;;1.42;1.27;;;;;;;;;;4897187;29;20557;-66
2022/11/15 14:24:21;;;;;;;0.80;0.80;;;;;;;;;;4897036;29;20049;-67
2022/11/15 14:26:50;;;;;;;1.02;0.93;;;;;;;;;;4911726;29;20140;-66
2022/11/15 14:29:23;;;;;;;1.60;1.10;;;;;;;;;;4895280;29;20071;-67
2022/11/15 14:31:49;;;;;;;1.60;1.20;;;;;;;;;;4912165;29;20052;-66
2022/11/15 14:34:16;;;;;;;1.70;1.55;;;;;;;;;;4901533;29;20052;-66
2022/11/15 14:36:42;;;;;;;1.73;1.02;;;;;;;;;;4897397;29;20561;-66
2022/11/15 14:39:09;;;;;;;1.52;0.93;;;;;;;;;;4911674;29;20083;-67
2022/11/15 14:41:37;;;;;;;1.00;1.00;;;;;;;;;;4897660;29;20041;-67
2022/11/15 14:44:04;;;;;;;1.27;1.17;;;;;;;;;;4897171;29;20044;-67
2022/11/15 14:46:31;;;;;;;1.60;1.20;;;;;;;;;;4897249;29;20045;-67
2022/11/15 14:48:57;;;;;;;2.63;0.80;;;;;;;;;;4911167;29;20045;-67
2022/11/15 14:51:24;;;;;;;1.30;1.20;;;;;;;;;;4897184;29;20075;-67
2022/11/15 14:53:50;;;;;;;1.83;1.17;;;;;;;;;;4897330;29;20095;-66
2022/11/15 14:56:17;;;;;;;1.80;1.23;;;;;;;;;;4911705;29;20143;-67
2022/11/15 14:58:44;;;;;;;1.30;1.10;;;;;;;;;;4895650;29;20102;-67
2022/11/15 15:01:17;;;;;;;3.22;1.83;;;;;;;;;;4911821;29;20052;-66
2022/11/15 15:03:44;;;;;;;1.53;1.37;;;;;;;;;;4896870;29;20045;-67
2022/11/15 15:06:12;;;;;;;1.40;1.30;;;;;;;;;;4897117;29;20401;-66
2022/11/15 15:08:43;;;;;;;1.95;1.05;;;;;;;;;;4896234;29;20054;-67
2022/11/15 15:11:14;;;;;;;1.60;1.20;;;;;;;;;;4913868;29;20083;-67
2022/11/15 15:13:41;;;;;;;1.42;1.15;;;;;;;;;;4900484;29;20044;-67
2022/11/15 15:16:07;;;;;;;1.17;1.08;;;;;;;;;;4899259;29;20107;-67
2022/11/15 15:18:33;;;;;;;1.15;1.00;;;;;;;;;;4900223;29;20140;-67
2022/11/15 15:21:03;;;;;;;2.35;1.70;;;;;;;;;;4914863;29;20048;-67
2022/11/15 15:23:30;;;;;;;1.42;1.30;;;;;;;;;;4914694;29;20044;-66
2022/11/15 15:25:57;;;;;;;1.10;0.90;;;;;;;;;;4914837;29;20045;-66
2022/11/15 15:28:23;;;;;;;1.85;1.48;;;;;;;;;;4899612;29;20084;-66
2022/11/15 15:30:55;;;;;;;1.85;1.33;;;;;;;;;;4900180;29;20501;-67
2022/11/15 15:33:21;;;;;;;1.52;1.05;;;;;;;;;;4900116;29;20096;-66
2022/11/15 15:35:47;;;;;;;1.67;1.25;;;;;;;;;;4914688;29;20068;-66
2022/11/15 15:38:15;;;;;;;1.63;1.23;;;;;;;;;;4898322;29;20521;-67
2022/11/15 15:40:41;;;;;;;1.52;1.08;;;;;;;;;;4898836;29;20048;-66
2022/11/15 15:43:09;;;;;;;1.13;1.02;;;;;;;;;;4900286;29;20040;-66
2022/11/15 15:45:39;;;;;;;3.10;1.17;;;;;;;;;;4898687;29;20055;-66
2022/11/15 15:48:05;;;;;;;2.50;1.30;;;;;;;;;;4898365;29;20123;-66
2022/11/15 15:50:33;;;;;;;1.20;1.00;;;;;;;;;;4899044;29;20395;-67
2022/11/15 15:53:00;;;;;;;2.38;1.52;;;;;;;;;;4914706;29;20127;-66
2022/11/15 15:55:27;;;;;;;1.55;1.25;;;;;;;;;;4914460;29;20123;-66
2022/11/15 15:57:54;;;;;;;3.45;2.67;;;;;;;;;;4914030;29;20049;-66
2022/11/15 16:00:22;;;;;;;1.70;0.98;;;;;;;;;;4914318;29;20132;-67
2022/11/15 16:02:49;;;;;;;1.75;1.27;;;;;;;;;;4900641;29;20461;-66
2022/11/15 16:05:15;;;;;;;1.77;1.10;;;;;;;;;;4899874;29;20045;-66
2022/11/15 16:07:43;;;;;;;2.83;1.58;;;;;;;;;;4913545;29;20056;-66
2022/11/15 16:10:16;;;;;;;1.15;1.05;;;;;;;;;;4899645;29;20051;-66
2022/11/15 16:12:43;;;;;;;1.17;1.08;;;;;;;;;;4899587;29;20466;-66
2022/11/15 16:15:09;;;;;;;3.20;1.10;;;;;;;;;;4898034;29;20513;-66